Lawrence, KS (66044)

11:19 PM CST on February 23, 2017 (GMT -0600)
University Place | | Change Station

Elev 912 ft 38.95 °N, 95.24 °W | Updated 8 seconds ago

Overcast
Overcast
48.6 °F
Feels Like 49 °F
N
3.0
Wind Variable Wind from SW

Today
High -- | Low -- °F
--% Chance of Precip.
Yesterday
High -- | Low -- °F
Precip. -- in
Pressure 29.45 in
Visibility 5.0 miles
Clouds Overcast 1100 ft
Windchill 49 °F
Dew Point 45 °F
Humidity 86%
Rainfall 0.00 in
Snow Depth Not available.
7:01 AM 6:07 PM
Waning Crescent, 7% visible
METAR KLWC 240452Z AUTO 30018KT 5SM BR OVC011 10/08 A2945 RMK AO2 LTG DSNT SE SLP971 T01000078
Pressure 29.45 in
Visibility 5.0 miles
Clouds Overcast 1100 ft
Windchill 49 °F
Dew Point 45 °F
Humidity 86%
Rainfall 0.00 in
Snow Depth Not available.
7:01 AM 6:07 PM
Waning Crescent, 7% visible
METAR KLWC 240452Z AUTO 30018KT 5SM BR OVC011 10/08 A2945 RMK AO2 LTG DSNT SE SLP971 T01000078

Get Your Daily Forecast Email!

Thanks for signing up!

Be on the lookout for a verification email in your inbox.

You'll start receiving the daily forecast at 8 AM.

×

10-Day Weather Forecast

Almanac

Astronomy

Feb. 23, 2017 Rise Set
Actual Time
Civil Twilight
Nautical Twilight
Astronomical Twilight
Moon
Length of Visible Light
Length of Day
Tomorrow will be .
, % of the Moon is Illuminated

Today's Extremes

State Highs State Lows

Community

WunderPhotos

Upload Photos

1,962,540 photos uploaded!

WunderBlog® & News

Nearby

Air Quality

  Air Quality AQ Index Pollutant
Not available.

Snow Depth

Station Depth Elevation

Earthquake Activity

City Distance Mag. Time & Date
Minimum magnitude displayed is 2.5.

Coastal Water Temperatures

Place Temperature

Stations

Nearby Weather Stations

Station Location Temp. Windchill Dew Point Humidity Wind Precip. Elev Updated Type
                   

Watches & Warnings

There are currently no watches in effect.